createdAt,value
2023-05-08T00:02:07.441Z,8.46
2023-05-08T00:04:39.914Z,8.44
2023-05-08T00:07:10.843Z,8.40
2023-05-08T00:09:41.929Z,8.38
2023-05-08T00:12:12.714Z,8.36
2023-05-08T00:14:43.192Z,8.28
2023-05-08T00:17:15.754Z,8.24
2023-05-08T00:19:48.186Z,8.20
2023-05-08T00:22:19.729Z,8.20
2023-05-08T00:24:50.190Z,8.13
2023-05-08T00:27:23.418Z,8.06
2023-05-08T00:29:54.937Z,8.12
2023-05-08T00:32:26.663Z,7.99
2023-05-08T00:34:57.293Z,7.96
2023-05-08T00:37:31.095Z,7.88
2023-05-08T00:40:02.171Z,7.88
2023-05-08T00:42:35.521Z,7.90
2023-05-08T00:45:06.704Z,7.87
2023-05-08T00:47:39.515Z,7.94
2023-05-08T00:50:14.194Z,7.84
2023-05-08T00:52:45.229Z,7.77
2023-05-08T00:55:17.607Z,7.77
2023-05-08T00:57:49.361Z,7.73
2023-05-08T01:02:49.065Z,7.72
2023-05-08T01:05:19.671Z,7.64
2023-05-08T01:07:52.075Z,7.64
2023-05-08T01:10:22.657Z,7.66
2023-05-08T01:13:02.343Z,7.62
2023-05-08T01:15:47.294Z,7.60
2023-05-08T01:18:23.862Z,7.58
2023-05-08T01:21:03.846Z,7.52
2023-05-08T01:23:42.946Z,7.50
2023-05-08T01:26:32.856Z,7.46
2023-05-08T01:29:27.857Z,7.44
2023-05-08T01:32:25.580Z,7.43
2023-05-08T01:35:14.970Z,7.40
2023-05-08T01:38:00.888Z,7.44
2023-05-08T01:40:49.214Z,7.38
2023-05-08T01:43:38.052Z,7.38
2023-05-08T01:46:11.853Z,7.42
2023-05-08T01:48:48.475Z,7.29
2023-05-08T01:51:22.141Z,7.32
2023-05-08T01:53:59.741Z,7.36
2023-05-08T01:56:33.949Z,7.35
2023-05-08T01:59:06.905Z,7.30
2023-05-08T02:01:41.400Z,7.28
2023-05-08T02:04:13.429Z,7.28
2023-05-08T02:06:44.637Z,7.27
2023-05-08T02:09:15.900Z,7.21
2023-05-08T02:11:48.446Z,7.28
2023-05-08T02:14:21.259Z,7.22
2023-05-08T02:16:53.485Z,7.12
2023-05-08T02:19:27.803Z,7.10
2023-05-08T02:22:00.566Z,7.10
2023-05-08T02:24:33.017Z,7.10
2023-05-08T02:27:05.840Z,7.10
2023-05-08T02:29:46.557Z,7.02
2023-05-08T02:32:19.155Z,7.04
2023-05-08T02:35:02.664Z,6.92
2023-05-08T02:37:29.695Z,6.86
2023-05-08T02:40:04.569Z,6.86
2023-05-08T02:42:35.374Z,6.86
2023-05-08T02:45:06.608Z,6.80
2023-05-08T02:47:59.905Z,6.74
2023-05-08T02:50:45.373Z,6.74
2023-05-08T02:53:18.976Z,6.70
2023-05-08T02:55:55.886Z,6.70
2023-05-08T02:58:46.411Z,6.72
2023-05-08T03:01:30.414Z,6.71
2023-05-08T03:04:15.193Z,6.64
2023-05-08T03:06:48.646Z,6.66
2023-05-08T03:09:28.961Z,6.67
2023-05-08T03:12:04.106Z,6.62
2023-05-08T03:14:38.703Z,6.61
2023-05-08T03:17:18.787Z,6.56
2023-05-08T03:19:52.311Z,6.44
2023-05-08T03:22:24.653Z,6.50
2023-05-08T03:24:56.990Z,6.51
2023-05-08T03:27:30.610Z,6.52
2023-05-08T03:30:03.473Z,6.54
2023-05-08T03:32:35.858Z,6.54
2023-05-08T03:35:07.457Z,6.53
2023-05-08T03:37:39.796Z,6.52
2023-05-08T03:40:13.133Z,6.51
2023-05-08T03:42:44.917Z,6.54
2023-05-08T03:45:18.746Z,6.54
2023-05-08T03:47:50.010Z,6.52
2023-05-08T03:50:22.776Z,6.54
2023-05-08T03:52:57.929Z,6.46
2023-05-08T03:55:29.571Z,6.50
2023-05-08T03:58:09.066Z,6.55
2023-05-08T04:00:54.333Z,6.56
2023-05-08T04:03:28.886Z,6.51
2023-05-08T04:06:14.561Z,6.52
2023-05-08T04:08:54.362Z,6.49
2023-05-08T04:11:56.879Z,6.48
2023-05-08T04:14:30.838Z,6.52
2023-05-08T04:17:04.671Z,6.60
2023-05-08T04:19:38.308Z,6.60
2023-05-08T04:22:13.728Z,6.67
2023-05-08T04:24:47.776Z,6.64
2023-05-08T04:27:18.981Z,6.73
2023-05-08T04:29:49.742Z,6.76
2023-05-08T04:32:21.400Z,6.76
2023-05-08T04:34:53.392Z,6.77
2023-05-08T04:37:29.501Z,6.80
2023-05-08T04:40:02.850Z,6.80
2023-05-08T04:42:35.010Z,6.83
2023-05-08T04:45:12.284Z,6.80
2023-05-08T04:47:45.106Z,6.88
2023-05-08T04:50:15.943Z,6.89
2023-05-08T04:52:46.967Z,6.96
2023-05-08T04:55:17.583Z,7.10
2023-05-08T04:57:48.064Z,7.38
2023-05-08T05:00:19.048Z,9.06
2023-05-08T05:02:49.624Z,9.93
2023-05-08T05:05:20.680Z,10.30
2023-05-08T05:07:51.281Z,10.62
2023-05-08T05:10:22.009Z,10.76
2023-05-08T05:12:52.543Z,10.84
2023-05-08T05:15:23.166Z,12.18
2023-05-08T05:17:53.864Z,11.64
2023-05-08T05:20:24.545Z,10.43
2023-05-08T05:22:56.418Z,10.28
2023-05-08T05:25:27.413Z,11.10
2023-05-08T05:27:58.672Z,11.92
2023-05-08T05:30:29.202Z,12.52
2023-05-08T05:33:00.667Z,12.96
2023-05-08T05:35:32.734Z,13.32
2023-05-08T05:38:06.241Z,12.46
2023-05-08T05:40:36.913Z,13.09
2023-05-08T05:43:07.821Z,12.82
2023-05-08T05:45:39.060Z,12.39
2023-05-08T05:48:09.927Z,12.86
2023-05-08T05:50:41.182Z,12.60
2023-05-08T05:53:11.921Z,13.12
2023-05-08T05:55:42.645Z,13.02
2023-05-08T05:58:13.231Z,13.38
2023-05-08T06:00:44.308Z,14.38
2023-05-08T06:03:16.348Z,14.36
2023-05-08T06:05:49.307Z,13.96
2023-05-08T06:08:19.856Z,14.64
2023-05-08T06:10:51.096Z,13.24
2023-05-08T06:13:21.790Z,13.38
2023-05-08T06:15:53.127Z,12.63
2023-05-08T06:18:25.181Z,12.80
2023-05-08T06:21:00.220Z,14.12
2023-05-08T06:23:30.876Z,16.02
2023-05-08T06:26:01.518Z,14.04
2023-05-08T06:28:32.235Z,13.78
2023-05-08T06:31:03.590Z,13.53
2023-05-08T06:33:34.329Z,12.87
2023-05-08T06:36:07.598Z,12.01
2023-05-08T06:38:38.834Z,12.46
2023-05-08T06:41:09.947Z,11.50
2023-05-08T06:43:41.018Z,10.36
2023-05-08T06:46:11.699Z,10.54
2023-05-08T06:48:42.145Z,10.58
2023-05-08T06:51:12.653Z,10.06
2023-05-08T06:53:44.060Z,10.36
2023-05-08T06:56:14.642Z,10.26
2023-05-08T06:58:56.547Z,10.02
2023-05-08T07:01:21.064Z,10.02
2023-05-08T07:03:51.589Z,10.09
2023-05-08T07:06:22.253Z,10.13
2023-05-08T07:08:52.900Z,10.33
2023-05-08T07:11:25.227Z,10.44
2023-05-08T07:13:56.544Z,10.59
2023-05-08T07:16:28.658Z,10.72
2023-05-08T07:18:59.141Z,10.68
2023-05-08T07:21:30.136Z,10.64
2023-05-08T07:24:04.208Z,10.56
2023-05-08T07:26:35.244Z,10.60
2023-05-08T07:29:07.166Z,10.88
2023-05-08T07:31:41.460Z,10.92
2023-05-08T07:34:12.084Z,10.98
2023-05-08T07:36:42.715Z,11.09
2023-05-08T07:39:13.203Z,11.37
2023-05-08T07:41:44.153Z,11.35
2023-05-08T07:44:15.129Z,11.58
2023-05-08T07:46:45.847Z,11.52
2023-05-08T07:49:19.130Z,11.22
2023-05-08T07:51:50.265Z,11.54
2023-05-08T07:54:20.899Z,11.53
2023-05-08T07:56:53.038Z,11.47
2023-05-08T07:59:23.629Z,11.66
2023-05-08T08:01:54.311Z,11.82
2023-05-08T08:04:28.281Z,11.78
2023-05-08T08:06:59.433Z,11.88
2023-05-08T08:09:32.360Z,11.83
2023-05-08T08:12:05.759Z,11.89
2023-05-08T08:14:36.435Z,12.14
2023-05-08T08:17:07.160Z,12.17
2023-05-08T08:19:37.840Z,12.38
2023-05-08T08:22:08.424Z,12.41
2023-05-08T08:24:40.036Z,12.20
2023-05-08T08:27:10.586Z,12.28
2023-05-08T08:29:42.685Z,12.26
2023-05-08T08:32:13.664Z,12.48
2023-05-08T08:34:44.149Z,12.33
2023-05-08T08:37:14.862Z,12.36
2023-05-08T08:39:48.496Z,12.53
2023-05-08T08:42:19.151Z,12.54
2023-05-08T08:44:51.046Z,12.67
2023-05-08T08:47:25.089Z,12.89
2023-05-08T08:49:57.614Z,12.81
2023-05-08T08:53:03.588Z,12.96
2023-05-08T08:55:38.055Z,13.15
2023-05-08T08:58:25.312Z,13.14
2023-05-08T09:00:56.625Z,13.23
2023-05-08T09:03:29.320Z,13.20
2023-05-08T09:06:02.286Z,13.26
2023-05-08T09:08:34.967Z,13.26
2023-05-08T09:11:07.288Z,13.56
2023-05-08T09:13:38.093Z,13.54
2023-05-08T09:16:17.631Z,13.32
2023-05-08T09:18:48.566Z,13.76
2023-05-08T09:21:20.107Z,13.50
2023-05-08T09:24:01.546Z,13.46
2023-05-08T09:26:38.952Z,13.77
2023-05-08T09:29:20.072Z,13.81
2023-05-08T09:31:53.953Z,13.66
2023-05-08T09:34:29.873Z,13.80
2023-05-08T09:37:12.602Z,13.95
2023-05-08T09:39:45.050Z,13.92
2023-05-08T09:42:15.634Z,14.00
2023-05-08T09:44:51.100Z,13.64
2023-05-08T09:47:24.926Z,13.83
2023-05-08T09:50:07.716Z,13.86
2023-05-08T09:52:40.065Z,13.87
2023-05-08T09:55:12.319Z,13.75
2023-05-08T09:57:58.054Z,14.02
2023-05-08T10:00:30.286Z,14.24
2023-05-08T10:03:03.251Z,14.40
2023-05-08T10:05:36.622Z,14.34
2023-05-08T10:08:22.112Z,14.32
2023-05-08T10:10:54.283Z,14.20
2023-05-08T10:13:26.846Z,14.22
2023-05-08T10:15:59.420Z,14.43
2023-05-08T10:18:32.916Z,14.64
2023-05-08T10:21:06.560Z,14.66
2023-05-08T10:23:40.609Z,14.72
2023-05-08T10:26:16.768Z,14.69
2023-05-08T10:29:01.800Z,14.89
2023-05-08T10:31:35.511Z,15.08
2023-05-08T10:34:08.421Z,15.15
2023-05-08T10:36:38.952Z,15.39
2023-05-08T10:39:09.834Z,15.32
2023-05-08T10:41:40.846Z,15.06
2023-05-08T10:44:11.928Z,15.02
2023-05-08T10:47:02.894Z,15.27
2023-05-08T10:50:02.579Z,14.92
2023-05-08T10:52:41.840Z,15.08
2023-05-08T10:55:21.519Z,15.11
2023-05-08T10:58:15.367Z,15.16
2023-05-08T11:01:07.629Z,15.39
2023-05-08T11:03:49.973Z,15.21
2023-05-08T11:06:40.018Z,15.44
2023-05-08T11:09:12.098Z,15.48
2023-05-08T11:11:45.794Z,15.51
2023-05-08T11:14:19.770Z,15.68
2023-05-08T11:17:01.392Z,16.00
2023-05-08T11:19:32.642Z,15.87
2023-05-08T11:22:28.406Z,15.93
2023-05-08T11:25:05.335Z,15.58
2023-05-08T11:27:43.964Z,15.92
2023-05-08T11:30:35.103Z,15.91
2023-05-08T11:33:08.998Z,15.92
2023-05-08T11:35:49.109Z,15.69
2023-05-08T11:38:28.177Z,15.87
2023-05-08T11:41:02.765Z,15.92
2023-05-08T11:43:55.712Z,16.13
2023-05-08T11:46:29.368Z,16.10
2023-05-08T11:49:01.861Z,16.06
2023-05-08T11:51:34.341Z,15.95
2023-05-08T11:54:06.677Z,15.90
2023-05-08T11:56:39.794Z,16.01
2023-05-08T11:59:10.811Z,15.98
2023-05-08T12:01:41.363Z,16.04
2023-05-08T12:04:14.404Z,16.14
2023-05-08T12:06:47.039Z,16.37
2023-05-08T12:09:20.706Z,16.38
2023-05-08T12:11:55.220Z,16.31
2023-05-08T12:14:26.572Z,16.19
2023-05-08T12:16:57.495Z,16.56
2023-05-08T12:19:28.035Z,16.48
2023-05-08T12:21:58.753Z,16.60
2023-05-08T12:24:29.702Z,16.42
2023-05-08T12:27:00.193Z,16.33
2023-05-08T12:29:30.860Z,16.45
2023-05-08T12:32:02.393Z,16.74
2023-05-08T12:34:33.200Z,16.84
2023-05-08T12:37:06.548Z,16.84
2023-05-08T12:39:37.841Z,16.76
2023-05-08T12:42:08.611Z,16.74
2023-05-08T12:44:39.228Z,16.85
2023-05-08T12:47:09.986Z,16.92
2023-05-08T12:49:40.372Z,16.94
2023-05-08T12:52:14.965Z,17.10
2023-05-08T12:54:49.389Z,16.79
2023-05-08T12:57:22.300Z,16.88
2023-05-08T12:59:54.331Z,16.81
2023-05-08T13:02:26.439Z,16.79
2023-05-08T13:04:57.524Z,16.79
2023-05-08T13:07:35.535Z,17.04
2023-05-08T13:10:07.712Z,16.93
2023-05-08T13:12:38.372Z,17.14
2023-05-08T13:15:10.644Z,16.94
2023-05-08T13:17:41.796Z,17.08
2023-05-08T13:20:12.832Z,17.17
2023-05-08T13:22:45.120Z,17.23
2023-05-08T13:25:15.940Z,17.18
2023-05-08T13:27:50.660Z,17.24
2023-05-08T13:30:22.217Z,17.10
2023-05-08T13:32:54.046Z,17.00
2023-05-08T13:35:28.084Z,16.92
2023-05-08T13:38:00.787Z,17.04
2023-05-08T13:40:31.452Z,17.12
2023-05-08T13:43:02.048Z,17.38
2023-05-08T13:45:32.996Z,17.36
2023-05-08T13:48:03.695Z,17.44
2023-05-08T13:50:37.015Z,17.41
2023-05-08T13:53:07.749Z,17.47
2023-05-08T13:55:38.388Z,17.38
2023-05-08T13:58:09.082Z,17.59
2023-05-08T14:00:39.790Z,17.72
2023-05-08T14:03:10.667Z,17.38
2023-05-08T14:05:41.504Z,17.48
2023-05-08T14:08:12.180Z,17.49
2023-05-08T14:10:44.344Z,17.52
2023-05-08T14:13:15.129Z,17.42
2023-05-08T14:15:45.907Z,17.70
2023-05-08T14:18:16.532Z,17.86
2023-05-08T14:20:56.564Z,17.71
2023-05-08T14:23:20.538Z,17.86
2023-05-08T14:25:51.448Z,17.74
2023-05-08T14:28:24.255Z,17.79
2023-05-08T14:30:56.719Z,17.86
2023-05-08T14:33:27.259Z,17.94
2023-05-08T14:35:58.167Z,17.50
2023-05-08T14:38:28.835Z,17.51
2023-05-08T14:41:03.068Z,17.35
2023-05-08T14:43:31.955Z,17.24
2023-05-08T14:46:04.044Z,17.33
2023-05-08T14:48:34.729Z,17.51
2023-05-08T14:51:06.580Z,17.59
2023-05-08T14:53:37.202Z,17.62
2023-05-08T14:56:08.663Z,17.78
2023-05-08T14:58:39.584Z,17.98
2023-05-08T15:01:10.164Z,17.76
2023-05-08T15:03:40.905Z,17.66
2023-05-08T15:06:12.521Z,17.60
2023-05-08T15:08:43.118Z,17.57
2023-05-08T15:11:13.725Z,17.62
2023-05-08T15:13:44.348Z,17.78
2023-05-08T15:16:14.905Z,17.84
2023-05-08T15:18:45.886Z,17.62
2023-05-08T15:21:19.128Z,17.70
2023-05-08T15:23:49.704Z,17.83
2023-05-08T15:26:20.938Z,17.54
2023-05-08T15:28:51.507Z,17.57
2023-05-08T15:31:23.009Z,17.59
2023-05-08T15:33:54.585Z,17.66
2023-05-08T15:36:28.462Z,17.79
2023-05-08T15:38:59.110Z,17.86
2023-05-08T15:41:29.764Z,17.85
2023-05-08T15:44:00.818Z,17.78
2023-05-08T15:46:31.327Z,17.63
2023-05-08T15:49:02.998Z,17.56
2023-05-08T15:51:34.874Z,17.46
2023-05-08T15:54:05.924Z,17.45
2023-05-08T15:56:36.466Z,17.47
2023-05-08T15:59:07.411Z,17.62
2023-05-08T16:01:38.886Z,17.32
2023-05-08T16:04:09.865Z,17.31
2023-05-08T16:06:40.498Z,17.30
2023-05-08T16:09:12.166Z,17.26
2023-05-08T16:11:44.143Z,17.17
2023-05-08T16:14:14.867Z,17.09
2023-05-08T16:16:45.536Z,17.08
2023-05-08T16:19:16.088Z,17.22
2023-05-08T16:21:49.604Z,17.25
2023-05-08T16:24:20.868Z,17.16
2023-05-08T16:26:51.524Z,17.13
2023-05-08T16:29:23.851Z,17.08
2023-05-08T16:31:54.543Z,17.08
2023-05-08T16:34:25.219Z,17.15
2023-05-08T16:36:55.824Z,17.22
2023-05-08T16:39:26.433Z,17.13
2023-05-08T16:41:56.889Z,17.16
2023-05-08T16:44:27.568Z,17.16
2023-05-08T16:46:58.254Z,17.09
2023-05-08T16:49:28.715Z,17.16
2023-05-08T16:51:59.476Z,17.12
2023-05-08T16:54:30.768Z,16.98
2023-05-08T16:57:01.357Z,17.30
2023-05-08T16:59:32.467Z,18.28
2023-05-08T17:02:02.972Z,18.58
2023-05-08T17:04:36.598Z,18.72
2023-05-08T17:07:07.527Z,19.58
2023-05-08T17:09:39.200Z,20.43
2023-05-08T17:12:11.272Z,19.42
2023-05-08T17:14:44.736Z,19.86
2023-05-08T17:17:15.263Z,20.71
2023-05-08T17:19:46.035Z,21.42
2023-05-08T17:22:17.785Z,21.17
2023-05-08T17:24:48.498Z,19.65
2023-05-08T17:27:19.707Z,19.40
2023-05-08T17:29:50.633Z,20.32
2023-05-08T17:32:21.452Z,20.01
2023-05-08T17:34:53.709Z,20.19
2023-05-08T17:37:24.691Z,21.12
2023-05-08T17:39:55.198Z,18.84
2023-05-08T17:42:25.883Z,18.81
2023-05-08T17:44:56.682Z,18.41
2023-05-08T17:47:27.380Z,17.79
2023-05-08T17:49:58.153Z,17.08
2023-05-08T17:52:28.712Z,16.76
2023-05-08T17:54:59.290Z,16.46
2023-05-08T17:57:32.249Z,16.32
2023-05-08T18:00:02.917Z,16.14
2023-05-08T18:02:33.611Z,16.04
2023-05-08T18:05:04.229Z,16.00
2023-05-08T18:07:34.871Z,15.94
2023-05-08T18:10:05.626Z,15.90
2023-05-08T18:12:36.239Z,15.84
2023-05-08T18:15:09.391Z,15.76
2023-05-08T18:17:40.215Z,15.73
2023-05-08T18:20:11.369Z,15.73
2023-05-08T18:22:42.137Z,15.63
2023-05-08T18:25:14.744Z,15.58
2023-05-08T18:27:47.728Z,15.45
2023-05-08T18:30:18.385Z,15.45
2023-05-08T18:32:52.058Z,15.42
2023-05-08T18:35:22.725Z,15.32
2023-05-08T18:37:53.225Z,15.29
2023-05-08T18:40:23.681Z,15.18
2023-05-08T18:42:56.068Z,15.09
2023-05-08T18:45:28.069Z,15.13
2023-05-08T18:47:58.629Z,15.03
2023-05-08T18:50:30.657Z,14.92
2023-05-08T18:53:03.820Z,14.91
2023-05-08T18:55:35.904Z,14.89
2023-05-08T18:58:07.062Z,14.81
2023-05-08T19:00:37.706Z,14.76
2023-05-08T19:03:08.409Z,14.70
2023-05-08T19:05:39.122Z,14.68
2023-05-08T19:08:09.786Z,14.62
2023-05-08T19:10:41.732Z,14.53
2023-05-08T19:13:12.358Z,14.48
2023-05-08T19:15:43.077Z,14.48
2023-05-08T19:18:14.772Z,14.42
2023-05-08T19:20:47.047Z,14.36
2023-05-08T19:23:17.664Z,14.24
2023-05-08T19:25:48.274Z,14.18
2023-05-08T19:28:18.756Z,14.14
2023-05-08T19:30:49.345Z,14.14
2023-05-08T19:33:22.589Z,14.11
2023-05-08T19:35:54.613Z,14.04
2023-05-08T19:38:26.022Z,13.93
2023-05-08T19:40:59.421Z,13.92
2023-05-08T19:43:31.603Z,13.88
2023-05-08T19:46:03.211Z,13.83
2023-05-08T19:48:36.191Z,13.82
2023-05-08T19:51:08.220Z,13.80
2023-05-08T19:53:40.212Z,13.74
2023-05-08T19:56:12.007Z,13.63
2023-05-08T19:58:43.949Z,13.55
2023-05-08T20:01:14.966Z,13.54
2023-05-08T20:03:47.591Z,13.44
2023-05-08T20:06:18.345Z,13.44
2023-05-08T20:08:50.956Z,13.39
2023-05-08T20:11:23.263Z,13.40
2023-05-08T20:13:55.123Z,13.35
2023-05-08T20:16:29.962Z,13.25
2023-05-08T20:19:02.907Z,13.23
2023-05-08T20:21:35.964Z,13.17
2023-05-08T20:24:07.756Z,13.09
2023-05-08T20:26:38.965Z,13.10
2023-05-08T20:29:24.121Z,13.06
2023-05-08T20:31:53.787Z,13.00
2023-05-08T20:34:24.498Z,12.98
2023-05-08T20:36:57.244Z,12.96
2023-05-08T20:39:28.636Z,12.91
2023-05-08T20:42:01.564Z,12.86
2023-05-08T20:44:32.145Z,12.83
2023-05-08T20:47:02.813Z,12.77
2023-05-08T20:49:33.779Z,12.72
2023-05-08T20:52:06.696Z,12.68
2023-05-08T20:54:39.011Z,12.65
2023-05-08T20:57:10.119Z,12.59
2023-05-08T20:59:40.732Z,12.57
2023-05-08T21:02:13.591Z,12.60
2023-05-08T21:04:45.297Z,12.57
2023-05-08T21:07:17.340Z,12.50
2023-05-08T21:09:47.837Z,12.50
2023-05-08T21:12:20.510Z,12.44
2023-05-08T21:14:51.695Z,12.39
2023-05-08T21:17:23.085Z,12.32
2023-05-08T21:19:54.561Z,12.24
2023-05-08T21:22:26.599Z,12.25
2023-05-08T21:24:58.659Z,12.16
2023-05-08T21:27:29.508Z,12.18
2023-05-08T21:30:00.940Z,12.12
2023-05-08T21:32:31.494Z,12.11
2023-05-08T21:35:02.057Z,12.06
2023-05-08T21:37:32.937Z,12.04
2023-05-08T21:40:04.639Z,12.01
2023-05-08T21:42:35.786Z,11.93
2023-05-08T21:45:07.349Z,11.89
2023-05-08T21:47:39.431Z,11.88
2023-05-08T21:50:11.203Z,11.82
2023-05-08T21:52:42.865Z,11.85
2023-05-08T21:55:13.632Z,11.86
2023-05-08T21:57:44.699Z,11.81
2023-05-08T22:00:16.800Z,11.72
2023-05-08T22:02:49.212Z,11.71
2023-05-08T22:05:20.667Z,11.64
2023-05-08T22:07:51.423Z,11.58
2023-05-08T22:10:22.169Z,11.56
2023-05-08T22:12:53.120Z,11.50
2023-05-08T22:15:29.670Z,11.56
2023-05-08T22:17:56.486Z,11.51
2023-05-08T22:20:27.130Z,11.42
2023-05-08T22:22:59.257Z,11.37
2023-05-08T22:25:30.008Z,11.35
2023-05-08T22:28:01.598Z,11.32
2023-05-08T22:30:32.259Z,11.30
2023-05-08T22:33:04.166Z,11.23
2023-05-08T22:35:37.297Z,11.17
2023-05-08T22:38:07.880Z,11.15
2023-05-08T22:40:41.792Z,11.11
2023-05-08T22:43:12.589Z,11.12
2023-05-08T22:45:43.125Z,11.04
2023-05-08T22:48:14.304Z,10.97
2023-05-08T22:50:47.745Z,10.95
2023-05-08T22:53:18.514Z,10.93
2023-05-08T22:55:49.017Z,10.90
2023-05-08T22:58:20.459Z,10.88
2023-05-08T23:00:51.444Z,10.80
2023-05-08T23:03:22.232Z,10.80
2023-05-08T23:05:52.827Z,10.72
2023-05-08T23:08:23.382Z,10.65
2023-05-08T23:10:54.048Z,10.66
2023-05-08T23:13:24.716Z,10.69
2023-05-08T23:15:55.474Z,10.64
2023-05-08T23:18:26.025Z,10.60
2023-05-08T23:20:56.766Z,10.53
2023-05-08T23:23:27.504Z,10.52
2023-05-08T23:26:00.966Z,10.46
2023-05-08T23:28:33.341Z,10.44
2023-05-08T23:31:04.907Z,10.40
2023-05-08T23:33:35.509Z,10.32
2023-05-08T23:36:08.289Z,10.34
2023-05-08T23:38:38.730Z,10.31
2023-05-08T23:41:12.843Z,10.23
2023-05-08T23:43:43.301Z,10.20
2023-05-08T23:46:14.106Z,10.20
2023-05-08T23:48:48.318Z,10.20
2023-05-08T23:51:21.145Z,10.14
2023-05-08T23:53:51.597Z,10.08
2023-05-08T23:56:22.114Z,10.05
2023-05-08T23:58:52.548Z,10.06
